Terminal Aerodrome Forecast
Issued by NWS Caribou, ME

Home | Current Version | Previous Version | Text Only | Print | Product List | Glossary On
Versions: 1 2 3 4 5 6 7 8 9 10 11 12 13 14 15 16 17 18 19 20 21 22
581
FTUS41 KCAR 270742 AAA
TAFBGR
TAF AMD
KBGR 270742Z 2708/2806 20005KT 1SM -SN BR OVC024
     FM271400 14008KT 1SM -SNPL OVC015
     FM271600 14007KT 1SM -FZRASNPL OVC003
     FM272100 12007KT 1SM -RA OVC003
     FM280400 08005KT P6SM OVC015=

USA.gov is the U.S. government's official web portal to all federal, state and local government web resources and services.